Time,TemperatureF,DewpointF,PressureIn,WindDirection,WindDirectionDegrees,WindSpeedMPH,WindSpeedGustMPH,Humidity,HourlyPrecipIn,Conditions,Clouds,dailyrainin,SoftwareType,DateUTC
2013-09-03 00:00:00,82.5,77.5,29.90,SE,142,1.0,6.0,85,0.00,RA,,0.00,WeatherDisplay:10.37,2013-09-03 06:00:00,
2013-09-03 00:15:00,82.3,77.3,29.89,South,175,1.0,3.0,85,0.00,CLR,,0.00,WeatherDisplay:10.37,2013-09-03 06:15:00,
2013-09-03 00:30:00,82.0,77.0,29.87,South,176,0.0,2.0,85,0.00,CLR,,0.00,WeatherDisplay:10.37,2013-09-03 06:30:00,
2013-09-03 00:45:00,81.8,77.2,29.86,South,176,0.0,0.0,86,0.00,CLR,,0.00,WeatherDisplay:10.37,2013-09-03 06:45:00,
2013-09-03 01:00:00,81.6,77.7,29.86,South,176,0.0,0.0,88,0.00,CLR,,0.00,WeatherDisplay:10.37,2013-09-03 07:00:00,
2013-09-03 01:15:00,81.1,77.2,29.86,South,175,1.0,3.0,88,0.00,CLR,,0.00,WeatherDisplay:10.37,2013-09-03 07:15:00,
2013-09-03 01:30:00,80.9,77.4,29.86,South,175,2.0,3.0,89,0.00,CLR,,0.00,WeatherDisplay:10.37,2013-09-03 07:30:00,
2013-09-03 01:45:00,81.1,76.9,29.85,SSW,206,3.0,5.0,87,0.00,CLR,,0.00,WeatherDisplay:10.37,2013-09-03 07:45:00,
2013-09-03 02:00:00,80.9,77.4,29.85,WNW,285,6.0,10.0,89,0.00,CLR,,0.00,WeatherDisplay:10.37,2013-09-03 08:00:00,
2013-09-03 02:15:00,80.3,77.0,29.85,WNW,303,2.0,13.0,90,0.00,CLR,,0.00,WeatherDisplay:10.37,2013-09-03 08:15:00,
2013-09-03 02:30:00,80.1,76.6,29.84,South,172,3.0,10.0,89,0.00,CLR,,0.00,WeatherDisplay:10.37,2013-09-03 08:30:00,
2013-09-03 02:45:00,79.1,75.9,29.86,SW,215,6.0,14.0,90,0.14,RA,,0.14,WeatherDisplay:10.37,2013-09-03 08:45:00,
2013-09-03 03:00:00,78.2,76.0,29.86,South,183,3.0,12.0,93,0.15,RA,,0.29,WeatherDisplay:10.37,2013-09-03 09:00:00,
2013-09-03 03:15:00,77.1,74.9,29.86,SSE,157,1.0,5.0,93,0.05,RA,,0.34,WeatherDisplay:10.37,2013-09-03 09:15:00,
2013-09-03 03:30:00,76.7,74.8,29.86,SE,145,1.0,3.0,94,0.00,CLR,,0.34,WeatherDisplay:10.37,2013-09-03 09:30:00,
2013-09-03 03:45:00,76.7,74.8,29.86,SE,144,0.0,2.0,94,0.00,CLR,,0.34,WeatherDisplay:10.37,2013-09-03 09:45:00,
2013-09-03 04:00:00,76.7,74.8,29.86,SE,144,1.0,2.0,94,0.00,CLR,,0.34,WeatherDisplay:10.37,2013-09-03 10:00:00,
2013-09-03 04:15:00,76.7,75.2,29.87,SE,144,1.0,1.0,95,0.00,CLR,,0.34,WeatherDisplay:10.37,2013-09-03 10:15:00,
2013-09-03 04:30:00,76.7,75.2,29.88,SE,145,0.0,0.0,95,0.00,CLR,,0.34,WeatherDisplay:10.37,2013-09-03 10:30:00,
2013-09-03 04:45:00,77.2,75.7,29.88,SE,144,0.0,2.0,95,0.00,CLR,,0.34,WeatherDisplay:10.37,2013-09-03 10:45:00,
2013-09-03 05:00:00,77.2,75.3,29.88,NE,40,2.0,3.0,94,0.00,CLR,,0.34,WeatherDisplay:10.37,2013-09-03 11:00:00,
2013-09-03 05:15:00,77.3,75.8,29.89,North,7,2.0,5.0,95,0.00,CLR,,0.34,WeatherDisplay:10.37,2013-09-03 11:15:00,
2013-09-03 05:30:00,77.6,75.7,29.89,North,4,2.0,5.0,94,0.00,CLR,,0.34,WeatherDisplay:10.37,2013-09-03 11:30:00,
2013-09-03 05:45:00,77.6,75.7,29.89,North,1,2.0,5.0,94,0.00,CLR,,0.34,WeatherDisplay:10.37,2013-09-03 11:45:00,
2013-09-03 06:00:00,77.5,75.6,29.89,North,357,2.0,5.0,94,0.00,CLR,,0.34,WeatherDisplay:10.37,2013-09-03 12:00:00,
2013-09-03 06:15:00,77.5,75.6,29.90,North,355,3.0,5.0,94,0.00,CLR,,0.34,WeatherDisplay:10.37,2013-09-03 12:15:00,
2013-09-03 06:30:00,77.8,75.9,29.90,North,4,3.0,6.0,94,0.00,CLR,,0.34,WeatherDisplay:10.37,2013-09-03 12:30:00,
2013-09-03 06:45:00,77.9,76.0,29.90,North,359,2.0,5.0,94,0.00,CLR,,0.34,WeatherDisplay:10.37,2013-09-03 12:45:00,
2013-09-03 07:00:00,78.2,76.4,29.91,North,359,1.0,3.0,94,0.00,CLR,,0.34,WeatherDisplay:10.37,2013-09-03 13:00:00,
2013-09-03 07:15:00,78.7,76.8,29.91,North,359,2.0,3.0,94,0.00,CLR,,0.34,WeatherDisplay:10.37,2013-09-03 13:15:00,
2013-09-03 07:30:00,78.9,77.0,29.91,North,351,3.0,6.0,94,0.00,CLR,,0.34,WeatherDisplay:10.37,2013-09-03 13:30:00,
2013-09-03 07:45:00,79.1,76.9,29.91,North,358,5.0,6.0,93,0.00,CLR,,0.34,WeatherDisplay:10.37,2013-09-03 13:45:00,
2013-09-03 08:00:00,79.1,76.9,29.91,North,358,5.0,8.0,93,0.00,CLR,,0.34,WeatherDisplay:10.37,2013-09-03 14:00:00,
2013-09-03 08:15:00,79.6,77.4,29.93,NNW,346,3.0,6.0,93,0.00,CLR,,0.34,WeatherDisplay:10.37,2013-09-03 14:15:00,
2013-09-03 08:30:00,80.0,77.5,29.93,North,349,3.0,6.0,92,0.00,CLR,,0.34,WeatherDisplay:10.37,2013-09-03 14:30:00,
2013-09-03 08:45:00,80.3,77.8,29.93,North,350,2.0,6.0,92,0.00,CLR,,0.34,WeatherDisplay:10.37,2013-09-03 14:45:00,
2013-09-03 09:00:00,80.7,77.8,29.93,NNE,15,5.0,7.0,91,0.00,CLR,,0.34,WeatherDisplay:10.37,2013-09-03 15:00:00,
2013-09-03 09:15:00,80.7,77.8,29.93,North,357,5.0,9.0,91,0.00,CLR,,0.34,WeatherDisplay:10.37,2013-09-03 15:15:00,
2013-09-03 09:30:00,80.8,77.9,29.94,North,10,5.0,9.0,91,0.00,CLR,,0.34,WeatherDisplay:10.37,2013-09-03 15:30:00,
2013-09-03 09:45:00,79.8,76.6,29.95,East,98,7.0,15.0,90,0.00,CLR,,0.34,WeatherDisplay:10.37,2013-09-03 15:45:00,
2013-09-03 10:00:00,79.0,75.5,29.94,East,97,5.0,12.0,89,0.00,CLR,,0.34,WeatherDisplay:10.37,2013-09-03 16:00:00,
2013-09-03 10:15:00,79.1,75.6,29.94,ESE,102,3.0,13.0,89,0.00,CLR,,0.34,WeatherDisplay:10.37,2013-09-03 16:15:00,
2013-09-03 10:30:00,78.4,75.2,29.93,East,96,5.0,15.0,90,0.00,CLR,,0.34,WeatherDisplay:10.37,2013-09-03 16:30:00,
2013-09-03 10:45:00,78.3,75.4,29.93,East,93,13.0,14.0,91,0.00,CLR,,0.34,WeatherDisplay:10.37,2013-09-03 16:45:00,
2013-09-03 11:00:00,78.2,75.4,29.93,East,95,6.0,15.0,91,0.00,CLR,,0.34,WeatherDisplay:10.37,2013-09-03 17:00:00,
2013-09-03 11:15:00,78.7,75.5,29.93,ESE,113,8.0,13.0,90,0.00,CLR,,0.34,WeatherDisplay:10.37,2013-09-03 17:15:00,
2013-09-03 11:30:00,79.4,75.8,29.92,ESE,115,7.0,13.0,89,0.00,CLR,,0.34,WeatherDisplay:10.37,2013-09-03 17:30:00,
2013-09-03 11:45:00,79.5,75.3,29.92,ESE,117,10.0,13.0,87,0.00,CLR,,0.34,WeatherDisplay:10.37,2013-09-03 17:45:00,
2013-09-03 12:00:00,79.9,76.0,29.92,ESE,107,6.0,14.0,88,0.00,CLR,,0.34,WeatherDisplay:10.37,2013-09-03 18:00:00,
2013-09-03 12:15:00,79.8,76.3,29.91,ESE,116,8.0,13.0,89,0.00,CLR,,0.34,WeatherDisplay:10.37,2013-09-03 18:15:00,
2013-09-03 12:30:00,79.8,76.6,29.90,ESE,109,5.0,14.0,90,0.00,CLR,,0.34,WeatherDisplay:10.37,2013-09-03 18:30:00,
2013-09-03 12:45:00,79.7,76.8,29.90,East,97,6.0,15.0,91,0.00,CLR,,0.34,WeatherDisplay:10.37,2013-09-03 18:45:00,
2013-09-03 13:00:00,79.6,75.8,29.90,East,88,7.0,13.0,88,0.00,CLR,,0.34,WeatherDisplay:10.37,2013-09-03 19:00:00,
2013-09-03 13:15:00,79.7,76.2,29.89,East,96,6.0,12.0,89,0.00,CLR,,0.34,WeatherDisplay:10.37,2013-09-03 19:15:00,
2013-09-03 13:30:00,79.7,76.5,29.88,East,95,6.0,14.0,90,0.00,CLR,,0.34,WeatherDisplay:10.37,2013-09-03 19:30:00,
2013-09-03 13:45:00,79.5,76.0,29.87,ESE,108,7.0,12.0,89,0.00,CLR,,0.34,WeatherDisplay:10.37,2013-09-03 19:45:00,
2013-09-03 14:00:00,79.2,75.7,29.87,East,96,7.0,14.0,89,0.00,CLR,,0.34,WeatherDisplay:10.37,2013-09-03 20:00:00,
2013-09-03 14:15:00,79.3,75.8,29.86,East,97,5.0,13.0,89,0.00,CLR,,0.34,WeatherDisplay:10.37,2013-09-03 20:15:00,
2013-09-03 14:30:00,79.5,76.0,29.85,East,91,5.0,13.0,89,0.00,CLR,,0.34,WeatherDisplay:10.37,2013-09-03 20:30:00,
2013-09-03 14:45:00,79.7,76.2,29.85,East,93,5.0,13.0,89,0.00,CLR,,0.34,WeatherDisplay:10.37,2013-09-03 20:45:00,
2013-09-03 15:00:00,79.8,76.3,29.85,East,100,5.0,12.0,89,0.00,CLR,,0.34,WeatherDisplay:10.37,2013-09-03 21:00:00,
2013-09-03 15:15:00,79.7,76.2,29.84,East,93,2.0,12.0,89,0.00,CLR,,0.34,WeatherDisplay:10.37,2013-09-03 21:15:00,
2013-09-03 15:30:00,79.5,75.6,29.83,ESE,102,5.0,9.0,88,0.00,CLR,,0.34,WeatherDisplay:10.37,2013-09-03 21:30:00,
2013-09-03 15:45:00,79.6,75.4,29.83,East,92,2.0,8.0,87,0.00,CLR,,0.34,WeatherDisplay:10.37,2013-09-03 21:45:00,
2013-09-03 16:00:00,79.6,75.1,29.82,East,85,2.0,7.0,86,0.00,CLR,,0.34,WeatherDisplay:10.37,2013-09-03 22:00:00,
2013-09-03 16:15:00,79.7,74.8,29.82,East,90,3.0,8.0,85,0.00,CLR,,0.34,WeatherDisplay:10.37,2013-09-03 22:15:00,
2013-09-03 16:26:00,79.8,74.9,29.82,East,91,3.0,7.0,85,0.00,CLR,,0.34,WeatherDisplay:10.37,2013-09-03 22:26:00,
2013-09-03 16:45:00,79.9,74.6,29.83,East,92,2.0,7.0,84,0.00,CLR,,0.34,WeatherDisplay:10.37,2013-09-03 22:45:00,
2013-09-03 17:00:00,80.0,74.7,29.83,East,89,3.0,7.0,84,0.00,CLR,,0.34,WeatherDisplay:10.37,2013-09-03 23:00:00,
2013-09-03 17:15:00,79.9,74.3,29.84,East,96,2.0,8.0,83,0.00,CLR,,0.34,WeatherDisplay:10.37,2013-09-03 23:15:00,
2013-09-03 17:30:00,80.0,74.4,29.84,East,90,1.0,5.0,83,0.00,CLR,,0.34,WeatherDisplay:10.37,2013-09-03 23:30:00,
2013-09-03 17:45:00,80.0,74.4,29.85,East,91,2.0,7.0,83,0.00,CLR,,0.34,WeatherDisplay:10.37,2013-09-03 23:45:00,
2013-09-03 18:00:00,79.9,74.3,29.85,East,91,2.0,8.0,83,0.00,CLR,,0.34,WeatherDisplay:10.37,2013-09-04 00:00:00,
2013-09-03 18:15:00,80.0,74.7,29.86,East,93,6.0,8.0,84,0.00,CLR,,0.34,WeatherDisplay:10.37,2013-09-04 00:15:00,
2013-09-03 18:30:00,80.1,74.8,29.86,East,98,2.0,8.0,84,0.00,CLR,,0.34,WeatherDisplay:10.37,2013-09-04 00:30:00,
2013-09-03 18:45:00,80.1,74.5,29.87,East,88,2.0,8.0,83,0.00,CLR,,0.34,WeatherDisplay:10.37,2013-09-04 00:45:00,
2013-09-03 19:00:00,80.1,74.5,29.88,ESE,102,1.0,6.0,83,0.00,CLR,,0.34,WeatherDisplay:10.37,2013-09-04 01:00:00,
2013-09-03 19:15:00,80.0,74.7,29.88,ESE,108,1.0,7.0,84,0.00,CLR,,0.34,WeatherDisplay:10.37,2013-09-04 01:15:00,
2013-09-03 19:30:00,80.1,74.8,29.88,East,81,1.0,7.0,84,0.00,CLR,,0.34,WeatherDisplay:10.37,2013-09-04 01:30:00,
2013-09-03 19:45:00,79.9,74.6,29.89,East,79,2.0,6.0,84,0.00,CLR,,0.34,WeatherDisplay:10.37,2013-09-04 01:45:00,
2013-09-03 20:00:00,80.2,74.9,29.90,East,86,3.0,6.0,84,0.00,CLR,,0.34,WeatherDisplay:10.37,2013-09-04 02:00:00,
2013-09-03 20:15:00,80.3,75.0,29.90,East,84,2.0,7.0,84,0.00,CLR,,0.34,WeatherDisplay:10.37,2013-09-04 02:15:00,
2013-09-03 20:30:00,80.2,74.6,29.91,East,89,2.0,7.0,83,0.00,CLR,,0.34,WeatherDisplay:10.37,2013-09-04 02:30:00,
2013-09-03 20:45:00,80.4,74.7,29.92,East,91,2.0,7.0,83,0.00,CLR,,0.34,WeatherDisplay:10.37,2013-09-04 02:45:00,
2013-09-03 21:00:00,80.6,74.6,29.91,East,87,1.0,7.0,82,0.00,CLR,,0.34,WeatherDisplay:10.37,2013-09-04 03:00:00,
2013-09-03 21:15:00,80.7,74.7,29.91,ESE,109,3.0,6.0,82,0.00,CLR,,0.34,WeatherDisplay:10.37,2013-09-04 03:15:00,
2013-09-03 21:30:00,80.7,74.3,29.91,ESE,109,2.0,6.0,81,0.00,CLR,,0.34,WeatherDisplay:10.37,2013-09-04 03:30:00,
2013-09-03 21:45:00,80.7,74.3,29.91,East,94,2.0,7.0,81,0.00,CLR,,0.34,WeatherDisplay:10.37,2013-09-04 03:45:00,
2013-09-03 22:00:00,81.0,74.6,29.90,East,98,2.0,6.0,81,0.00,CLR,,0.34,WeatherDisplay:10.37,2013-09-04 04:00:00,
2013-09-03 22:15:00,81.1,74.7,29.90,East,87,3.0,8.0,81,0.00,CLR,,0.34,WeatherDisplay:10.37,2013-09-04 04:15:00,
2013-09-03 22:30:00,81.4,74.6,29.90,East,91,1.0,6.0,80,0.00,CLR,,0.34,WeatherDisplay:10.37,2013-09-04 04:30:00,
2013-09-03 22:45:00,81.6,75.9,29.90,ESE,111,3.0,6.0,83,0.00,CLR,,0.34,WeatherDisplay:10.37,2013-09-04 04:45:00,
2013-09-03 23:00:00,81.9,76.5,29.91,ESE,113,3.0,8.0,84,0.00,CLR,,0.34,WeatherDisplay:10.37,2013-09-04 05:00:00,
2013-09-03 23:15:00,81.9,77.3,29.90,ESE,103,2.0,9.0,86,0.00,CLR,,0.34,WeatherDisplay:10.37,2013-09-04 05:15:00,
2013-09-03 23:30:00,81.9,77.3,29.90,ESE,113,3.0,9.0,86,0.00,CLR,,0.34,WeatherDisplay:10.37,2013-09-04 05:30:00,
2013-09-03 23:45:00,81.8,77.9,29.89,ESE,114,6.0,9.0,88,0.00,CLR,,0.34,WeatherDisplay:10.37,2013-09-04 05:45:00,